Home > Products > Valid Products > TAF

000
FTUS43 KUNR 282300
TAFGCC
TAF
KGCC 282320Z 2900/2924 23015G25KT P6SM BKN120
     FM290400 22020G30KT P6SM BKN120=



000
FTUS43 KUNR 282300
TAFRAP
TAF
KRAP 282320Z 2900/2924 26007KT P6SM BKN150=



000
FTUS43 KUNR 282100 AAB
TAFRAP
TAF AMD
KRAP 282110Z 2821/2918 24010KT P6SM BKN150=



000
FTUS43 KUNR 282000 AAA
TAFRAP
TAF AMD
KRAP 282004Z 2820/2918 12009KT P6SM BKN150
     FM290200 25010KT P6SM BKN150=



000
FTUS43 KUNR 281700
TAFGCC
TAF
KGCC 281734Z 2818/2918 23016G24KT P6SM BKN150
     FM290400 22020G30KT P6SM BKN150=



000
FTUS43 KUNR 281700
TAFRAP
TAF
KRAP 281734Z 2818/2918 25010KT P6SM BKN150=



000
FTUS43 KUNR 281100
TAFRAP
TAF
KRAP 281120Z 2812/2912 VRB05KT P6SM BKN150
     FM281800 23007KT P6SM BKN120=



000
FTUS43 KUNR 281100
TAFGCC
TAF
KGCC 281120Z 2812/2912 23018KT P6SM BKN120=



000
FTUS43 KUNR 280500
TAFGCC
TAF
KGCC 280520Z 2806/2906 23017KT P6SM BKN120=



000
FTUS43 KUNR 280500
TAFRAP
TAF
KRAP 280520Z 2806/2906 VRB05KT P6SM BKN120=



000
FTUS43 KUNR 272300
TAFRAP
TAF
KRAP 272320Z 2800/2824 VRB05KT P6SM SCT100=



000
FTUS43 KUNR 272300
TAFGCC
TAF
KGCC 272320Z 2800/2824 23017KT P6SM SCT100=



000
FTUS43 KUNR 271900 AAA
TAFRAP
TAF AMD
KRAP 271906Z 2719/2818 17008KT P6SM SCT009 SCT150
     FM272200 20007KT P6SM SCT150
     FM280000 24006KT P6SM SKC=



000
FTUS43 KUNR 271700 CCA
TAFRAP
TAF COR
KRAP 271757Z 2718/2818 14011KT P6SM OVC007
     FM272000 15007KT P6SM BKN009
     FM272200 20007KT P6SM SCT011
     FM280000 24006KT P6SM SKC=



000
FTUS43 KUNR 271700
TAFRAP
TAF
KRAP 271720Z 2718/2818 14011KT P6SM OVC004
     FM272000 15007KT P6SM BKN007
     FM272200 20007KT P6SM SCT008
     FM280000 24006KT P6SM SKC=



000
FTUS43 KUNR 271700
TAFGCC
TAF
KGCC 271720Z 2718/2818 23012KT P6SM BKN150
     FM272100 23012G21KT P6SM SKC=



000
FTUS43 KUNR 271500 AAA
TAFGCC
TAF AMD
KGCC 271524Z 2715/2812 23014G21KT P6SM BKN150=



000
FTUS43 KUNR 271500 AAA
TAFRAP
TAF AMD
KRAP 271520Z 2715/2812 14011KT P6SM OVC004
     FM271800 15007KT P6SM BKN007
     FM272100 20007KT P6SM SCT008
     FM280000 24006KT P6SM SKC=



000
FTUS43 KUNR 271100
TAFRAP
TAF
KRAP 271120Z 2712/2812 VRB05KT P6SM SCT004 BKN015
      TEMPO 2712/2716 BKN004
     FM271700 15008KT P6SM BKN080=



000
FTUS43 KUNR 271100
TAFGCC
TAF
KGCC 271120Z 2712/2812 17015KT P6SM SCT060 BKN250
     FM271600 23015G25KT P6SM BKN250=



000
FTUS43 KUNR 271000 AAB
TAFRAP
TAF AMD
KRAP 271039Z 2711/2806 VRB05KT P6SM SCT004 BKN015
      TEMPO 2711/2714 BKN004
     FM271700 15008KT P6SM SCT015 BKN080=



000
FTUS43 KUNR 270700 AAA
TAFRAP
TAF AMD
KRAP 270759Z 2708/2806 VRB05KT 1SM BR BKN003
      TEMPO 2708/2712 5SM BR SCT003 BKN020
     FM271700 15008KT P6SM SCT015 BKN080=



000
FTUS43 KUNR 270500
TAFRAP
TAF
KRAP 270530Z 2706/2806 VRB05KT P6SM BKN008
     FM271700 15008KT P6SM SCT015 BKN080=



000
FTUS43 KUNR 270500
TAFGCC
TAF
KGCC 270530Z 2706/2806 17014KT P6SM BKN060
     FM270800 22014KT P6SM BKN060=



000
FTUS43 KUNR 270300 AAA
TAFGCC
TAF AMD
KGCC 270300Z 2703/2724 17008KT P6SM BKN050
     FM270700 21014KT P6SM BKN060=



000
FTUS43 KUNR 262300
TAFGCC
TAF
KGCC 262332Z 2700/2724 17005KT 3SM -SN BR SCT012 BKN035
     FM270400 21012KT P6SM BKN060=



000
FTUS43 KUNR 262300
TAFRAP
TAF
KRAP 262332Z 2700/2724 VRB05KT P6SM BKN015
     FM271600 15008KT P6SM SCT015 BKN050=



000
FTUS43 KUNR 262100 AAA
TAFRAP
TAF AMD
KRAP 262102Z 2621/2718 15005KT P6SM OVC015
     FM270600 15005KT P6SM OVC050=



000
FTUS43 KUNR 262100 AAA
TAFGCC
TAF AMD
KGCC 262101Z 2621/2718 17005KT P6SM SCT035 OVC050
      TEMPO 2621/2623 3SM -SN BR SCT015 OVC030
     FM270100 18007KT P6SM OVC050
     FM270600 21012KT P6SM OVC070=



000
FTUS43 KUNR 261700
TAFRAP
TAF
KRAP 261720Z 2618/2718 15005KT P6SM OVC015
      TEMPO 2618/2622 4SM -SN OVC012
     FM270600 15005KT P6SM OVC050=



000
FTUS43 KUNR 261700
TAFGCC
TAF
KGCC 261720Z 2618/2718 17005KT 3SM -SN BR OVC030
      TEMPO 2618/2622 1SM -SN BR SCT009 OVC015
     FM270100 18007KT P6SM OVC050
     FM270600 21012KT P6SM OVC070=



000
FTUS43 KUNR 261500 AAB
TAFGCC
TAF AMD
KGCC 261533Z 2616/2712 27008KT P6SM BKN040
      TEMPO 2616/2618 2SM -SN BR BKN012 OVC030
     FM261800 17009KT P6SM BKN020
     FM270500 17008KT P6SM OVC070=



000
FTUS43 KUNR 261300 AAA
TAFGCC
TAF AMD
KGCC 261319Z 2613/2712 27008KT P6SM BKN012
      TEMPO 2613/2617 SCT012 OVC060
     FM261700 17009KT P6SM BKN020
     FM270500 17008KT P6SM OVC070=



000
FTUS43 KUNR 261100
TAFRAP
TAF
KRAP 261120Z 2612/2712 33010KT P6SM BKN015
     FM261700 VRB05KT P6SM BKN025
     FM270400 VRB05KT P6SM OVC050=



000
FTUS43 KUNR 261100
TAFGCC
TAF
KGCC 261120Z 2612/2712 30008KT P6SM BKN008
     FM261700 17009KT P6SM BKN020
     FM270500 17008KT P6SM OVC070=



000
FTUS43 KUNR 261000 AAA
TAFGCC
TAF AMD
KGCC 261050Z 2611/2706 30008KT P6SM BKN008
     FM261700 17009KT P6SM BKN020=



000
FTUS43 KUNR 260600 AAA
TAFRAP
TAF AMD
KRAP 260610Z 2606/2706 34028G40KT P6SM BKN025
     FM260900 33015G25KT P6SM BKN020
     FM261500 VRB05KT P6SM BKN025=



000
FTUS43 KUNR 260500
TAFGCC
TAF
KGCC 260520Z 2606/2706 31015G25KT P6SM BKN012
     FM260800 30008KT P6SM BKN012
     FM261700 17009KT P6SM BKN020=



000
FTUS43 KUNR 260500
TAFRAP
TAF
KRAP 260520Z 2606/2706 33028G40KT P6SM BKN050
     FM260900 33015G25KT P6SM BKN040
     FM261500 VRB05KT P6SM BKN025=



    US Dept of Commerce
    National Oceanic and Atmospheric Administration
    National Weather Service
    1325 East West Highway
    Silver Spring, MD 20910
    Page Author: NWS Internet Services Team
Disclaimer
Information Quality
Credits
Glossary
Privacy Policy
Freedom of Information Act (FOIA)
About Us
Career Opportunities